Time;durP1;ratioP1;P1;durP2;ratioP2;P2;SDS_P1;SDS_P2;PMS_P1;PMS_P2;Temp;Humidity;BMP_temperature;BMP_pressure;BME280_temperature;BME280_humidity;BME280_pressure;Samples;Min_cycle;Max_cycle;Signal;HPM_P1;HPM_P2
2023/05/28 00:00:10;;;;;;;0.00;0.00;;;14.30;83.00;;;;;;5070304;28;20177;-66
2023/05/28 00:02:37;;;;;;;0.00;0.00;;;14.40;82.90;;;;;;5070251;28;20212;-65
2023/05/28 00:05:03;;;;;;;0.00;0.00;;;14.40;83.10;;;;;;5069443;28;20185;-65
2023/05/28 00:07:30;;;;;;;0.10;0.10;;;14.40;83.70;;;;;;5069830;28;20594;-65
2023/05/28 00:09:56;;;;;;;0.00;0.00;;;14.40;83.70;;;;;;5070072;28;20185;-65
2023/05/28 00:12:22;;;;;;;0.00;0.00;;;14.40;84.00;;;;;;5070003;28;20628;-65
2023/05/28 00:14:47;;;;;;;0.00;0.00;;;14.40;83.60;;;;;;5069783;28;20180;-65
2023/05/28 00:17:15;;;;;;;0.10;0.10;;;14.30;84.50;;;;;;5070063;28;20177;-65
2023/05/28 00:19:41;;;;;;;0.00;0.00;;;14.40;85.20;;;;;;5069678;28;20176;-65
2023/05/28 00:22:07;;;;;;;0.08;0.08;;;14.30;85.50;;;;;;5069723;28;20534;-65
2023/05/28 00:24:32;;;;;;;0.10;0.10;;;14.30;85.90;;;;;;5069402;28;20172;-65
2023/05/28 00:26:58;;;;;;;0.00;0.00;;;14.30;86.40;;;;;;5069563;28;20243;-65
2023/05/28 00:29:26;;;;;;;0.00;0.00;;;14.20;86.70;;;;;;5069828;28;20203;-65
2023/05/28 00:31:55;;;;;;;0.00;0.00;;;14.20;87.00;;;;;;5070281;28;20169;-65
2023/05/28 00:34:24;;;;;;;0.00;0.00;;;14.10;87.10;;;;;;5066433;28;20204;-65
2023/05/28 00:36:49;;;;;;;0.00;0.00;;;14.10;87.20;;;;;;5069740;28;20169;-65
2023/05/28 00:39:16;;;;;;;0.00;0.00;;;14.10;87.40;;;;;;5070311;28;20184;-65
2023/05/28 00:41:42;;;;;;;0.00;0.00;;;14.10;87.80;;;;;;5070646;28;20189;-65
2023/05/28 00:44:11;;;;;;;0.10;0.10;;;14.00;87.40;;;;;;5073690;28;20184;-65
2023/05/28 00:46:37;;;;;;;0.00;0.00;;;14.10;87.40;;;;;;5072800;28;20574;-65
2023/05/28 00:49:03;;;;;;;0.00;0.00;;;14.00;87.20;;;;;;5072783;28;20227;-66
2023/05/28 00:51:31;;;;;;;0.00;0.00;;;14.00;87.10;;;;;;5073032;28;20200;-65
2023/05/28 00:53:57;;;;;;;0.00;0.00;;;14.00;87.50;;;;;;5073043;28;20207;-65
2023/05/28 00:56:24;;;;;;;0.00;0.00;;;14.00;88.10;;;;;;5073634;28;20172;-65
2023/05/28 00:58:50;;;;;;;0.00;0.00;;;14.00;88.40;;;;;;5072773;28;20184;-65
2023/05/28 01:01:16;;;;;;;0.00;0.00;;;13.90;89.00;;;;;;5073337;28;20214;-66
2023/05/28 01:03:42;;;;;;;0.00;0.00;;;13.90;89.50;;;;;;5071137;28;20200;-65
2023/05/28 01:06:11;;;;;;;0.00;0.00;;;13.90;90.00;;;;;;5073236;28;21275;-65
2023/05/28 01:08:40;;;;;;;0.03;0.03;;;13.80;90.10;;;;;;5072586;28;20545;-65
2023/05/28 01:11:13;;;;;;;0.15;0.15;;;13.80;90.10;;;;;;5072537;28;20169;-65
2023/05/28 01:13:40;;;;;;;0.00;0.00;;;13.80;90.30;;;;;;5072868;28;20169;-65
2023/05/28 01:16:06;;;;;;;0.00;0.00;;;13.80;90.40;;;;;;5072500;28;20177;-65
2023/05/28 01:18:32;;;;;;;0.00;0.00;;;13.70;90.50;;;;;;5072043;28;20181;-65
2023/05/28 01:21:01;;;;;;;0.00;0.00;;;13.70;90.70;;;;;;5072277;28;20177;-65
2023/05/28 01:23:28;;;;;;;0.00;0.00;;;13.60;90.80;;;;;;5072483;28;20221;-65
2023/05/28 01:25:55;;;;;;;0.00;0.00;;;13.70;90.90;;;;;;5071458;28;20701;-65
2023/05/28 01:28:21;;;;;;;0.00;0.00;;;13.60;91.10;;;;;;5072094;28;20300;-65
2023/05/28 01:30:47;;;;;;;0.00;0.00;;;13.60;91.30;;;;;;5071304;28;20165;-65
2023/05/28 01:33:13;;;;;;;0.03;0.03;;;13.60;91.50;;;;;;5072436;28;20192;-65
2023/05/28 01:35:39;;;;;;;0.00;0.00;;;13.60;91.60;;;;;;5072946;28;20172;-65
2023/05/28 01:38:06;;;;;;;0.00;0.00;;;13.50;91.60;;;;;;5071368;28;20184;-65
2023/05/28 01:40:34;;;;;;;0.00;0.00;;;13.50;91.80;;;;;;5072019;28;20272;-65
2023/05/28 01:43:00;;;;;;;0.00;0.00;;;13.50;92.10;;;;;;5072572;28;20532;-65
2023/05/28 01:45:27;;;;;;;0.05;0.05;;;13.40;92.20;;;;;;5072695;28;20283;-65
2023/05/28 01:47:54;;;;;;;0.00;0.00;;;13.40;92.50;;;;;;5072324;28;20299;-65
2023/05/28 01:50:20;;;;;;;0.00;0.00;;;13.40;92.60;;;;;;5072717;28;20169;-65
2023/05/28 01:52:46;;;;;;;0.00;0.00;;;13.40;92.80;;;;;;5052144;28;20588;-66
2023/05/28 01:55:13;;;;;;;0.08;0.08;;;13.30;92.90;;;;;;5062323;28;20181;-66
2023/05/28 01:57:39;;;;;;;0.00;0.00;;;13.30;93.10;;;;;;5072348;28;20188;-65
2023/05/28 02:00:06;;;;;;;0.00;0.00;;;13.30;93.30;;;;;;5072549;28;20680;-66
2023/05/28 02:02:31;;;;;;;0.00;0.00;;;13.20;93.40;;;;;;5072378;28;20236;-66
2023/05/28 02:04:57;;;;;;;0.00;0.00;;;13.20;93.60;;;;;;5068083;28;20223;-66
2023/05/28 02:07:23;;;;;;;0.00;0.00;;;13.20;94.00;;;;;;5072241;28;20208;-65
2023/05/28 02:09:48;;;;;;;0.00;0.00;;;13.20;94.00;;;;;;5072375;28;20187;-65
2023/05/28 02:12:15;;;;;;;0.00;0.00;;;13.20;94.10;;;;;;5072009;28;20200;-66
2023/05/28 02:14:41;;;;;;;0.00;0.00;;;13.20;94.30;;;;;;5072177;28;20173;-66
2023/05/28 02:17:08;;;;;;;0.10;0.10;;;13.10;94.60;;;;;;5072228;28;20177;-65
2023/05/28 02:19:34;;;;;;;0.00;0.00;;;13.10;94.80;;;;;;5071841;28;20165;-66
2023/05/28 02:21:59;;;;;;;0.00;0.00;;;13.10;94.90;;;;;;5072294;28;20165;-66
2023/05/28 02:24:25;;;;;;;0.00;0.00;;;13.10;95.00;;;;;;5071881;28;20196;-66
2023/05/28 02:26:51;;;;;;;0.00;0.00;;;13.10;95.10;;;;;;5071537;28;20216;-65
2023/05/28 02:29:16;;;;;;;0.00;0.00;;;13.10;95.40;;;;;;5071733;28;20216;-65
2023/05/28 02:31:42;;;;;;;0.00;0.00;;;13.00;95.50;;;;;;5071874;28;20540;-65
2023/05/28 02:34:07;;;;;;;0.00;0.00;;;13.00;95.80;;;;;;5071729;28;20196;-65
2023/05/28 02:36:35;;;;;;;0.00;0.00;;;12.90;96.00;;;;;;5070618;28;20574;-65
2023/05/28 02:39:01;;;;;;;0.00;0.00;;;12.90;96.20;;;;;;5071558;28;20196;-65
2023/05/28 02:41:27;;;;;;;0.00;0.00;;;12.90;96.40;;;;;;5072031;28;20181;-65
2023/05/28 02:43:53;;;;;;;0.20;0.20;;;12.80;96.50;;;;;;5070911;28;20766;-65
2023/05/28 02:46:19;;;;;;;0.00;0.00;;;12.80;96.90;;;;;;5071795;28;20180;-66
2023/05/28 02:48:45;;;;;;;0.00;0.00;;;12.70;97.00;;;;;;5071524;28;20694;-65
2023/05/28 02:51:11;;;;;;;0.00;0.00;;;12.70;97.30;;;;;;5071317;28;20181;-66
2023/05/28 02:53:37;;;;;;;0.00;0.00;;;12.70;97.50;;;;;;5071932;28;20259;-66
2023/05/28 02:56:02;;;;;;;0.00;0.00;;;12.60;97.60;;;;;;5071239;28;20680;-65
2023/05/28 02:58:30;;;;;;;0.00;0.00;;;12.60;97.80;;;;;;5071804;28;20279;-66
2023/05/28 03:00:55;;;;;;;0.00;0.00;;;12.60;98.00;;;;;;5070914;28;20173;-65
2023/05/28 03:03:21;;;;;;;0.00;0.00;;;12.50;98.10;;;;;;5066711;28;20663;-65
2023/05/28 03:05:47;;;;;;;0.00;0.00;;;12.50;98.40;;;;;;5063478;28;20176;-65
2023/05/28 03:08:12;;;;;;;0.00;0.00;;;12.50;98.60;;;;;;5069156;28;20621;-66
2023/05/28 03:10:38;;;;;;;0.00;0.00;;;12.40;98.80;;;;;;5071151;28;20169;-65
2023/05/28 03:13:03;;;;;;;0.00;0.00;;;12.40;99.20;;;;;;5069366;28;20177;-65
2023/05/28 03:15:29;;;;;;;0.10;0.00;;;12.30;99.40;;;;;;5070116;28;20165;-65
2023/05/28 03:17:55;;;;;;;0.00;0.00;;;12.30;99.60;;;;;;5070701;28;20689;-65
2023/05/28 03:20:21;;;;;;;0.00;0.00;;;12.20;99.70;;;;;;5069084;28;20169;-65
2023/05/28 03:22:48;;;;;;;0.00;0.00;;;12.20;99.90;;;;;;5071001;28;20212;-65
2023/05/28 03:25:13;;;;;;;0.00;0.00;;;12.20;99.90;;;;;;5070105;28;20204;-65
2023/05/28 03:27:39;;;;;;;0.00;0.00;;;12.20;99.90;;;;;;5070778;28;20204;-65
2023/05/28 03:30:07;;;;;;;0.00;0.00;;;12.20;99.90;;;;;;5070995;28;20241;-65
2023/05/28 03:32:33;;;;;;;0.00;0.00;;;12.10;99.90;;;;;;5070687;28;20173;-65
2023/05/28 03:34:58;;;;;;;0.00;0.00;;;12.10;99.90;;;;;;5070754;28;20203;-65
2023/05/28 03:37:26;;;;;;;0.00;0.00;;;12.10;99.90;;;;;;5071305;28;20233;-66
2023/05/28 03:39:52;;;;;;;0.20;0.20;;;12.10;99.90;;;;;;5070571;28;20180;-65
2023/05/28 03:42:17;;;;;;;0.00;0.00;;;12.20;99.90;;;;;;5070573;28;20190;-65
2023/05/28 03:44:43;;;;;;;0.00;0.00;;;12.20;99.90;;;;;;5070700;28;20662;-65
2023/05/28 03:47:08;;;;;;;0.00;0.00;;;12.20;99.90;;;;;;5070653;28;20188;-65
2023/05/28 03:49:34;;;;;;;0.00;0.00;;;12.30;99.90;;;;;;5070155;28;20176;-65
2023/05/28 03:51:59;;;;;;;0.03;0.03;;;12.30;99.90;;;;;;5070683;28;20172;-65
2023/05/28 03:54:25;;;;;;;0.00;0.00;;;12.30;99.90;;;;;;5070356;28;20188;-65
2023/05/28 03:56:50;;;;;;;0.00;0.00;;;12.40;99.90;;;;;;5070073;28;20539;-65
2023/05/28 03:59:16;;;;;;;0.00;0.00;;;12.40;99.90;;;;;;5070581;28;20582;-65
2023/05/28 04:01:41;;;;;;;0.00;0.00;;;12.50;99.90;;;;;;5070069;28;20693;-65
2023/05/28 04:04:07;;;;;;;0.03;0.03;;;12.50;99.90;;;;;;5067891;28;20250;-65
2023/05/28 04:06:32;;;;;;;0.00;0.00;;;12.60;99.90;;;;;;5050297;28;20173;-65
2023/05/28 04:08:58;;;;;;;0.00;0.00;;;12.60;99.90;;;;;;5066032;28;20220;-65
2023/05/28 04:11:24;;;;;;;0.00;0.00;;;12.70;99.90;;;;;;5070022;28;20238;-65
2023/05/28 04:13:51;;;;;;;0.00;0.00;;;12.70;99.90;;;;;;5068852;28;20678;-65
2023/05/28 04:16:16;;;;;;;0.00;0.00;;;12.80;99.90;;;;;;5069832;28;20184;-65
2023/05/28 04:18:42;;;;;;;0.00;0.00;;;12.80;99.90;;;;;;5073136;28;20180;-65
2023/05/28 04:21:07;;;;;;;0.00;0.00;;;12.90;99.90;;;;;;5073210;28;20203;-65
2023/05/28 04:23:33;;;;;;;0.00;0.00;;;12.90;99.90;;;;;;5072497;28;20302;-65
2023/05/28 04:25:59;;;;;;;0.00;0.00;;;13.10;99.90;;;;;;5071831;28;20307;-66
2023/05/28 04:28:27;;;;;;;0.00;0.00;;;13.20;99.90;;;;;;5071340;28;20212;-64
2023/05/28 04:31:00;;;;;;;0.60;0.60;;;13.40;99.40;;;;;;5072993;28;20268;-65
2023/05/28 04:33:28;;;;;;;0.00;0.00;;;13.60;98.80;;;;;;5072177;28;20636;-64
2023/05/28 04:35:54;;;;;;;0.00;0.00;;;13.90;98.50;;;;;;5073454;28;20188;-64
2023/05/28 04:38:20;;;;;;;0.00;0.00;;;14.10;97.90;;;;;;5073582;28;20248;-65
2023/05/28 04:40:45;;;;;;;0.00;0.00;;;14.30;97.40;;;;;;5073272;28;20269;-60
2023/05/28 04:43:11;;;;;;;3.53;0.43;;;14.60;96.90;;;;;;5073030;28;20184;-58
2023/05/28 04:45:37;;;;;;;0.10;0.10;;;14.70;96.30;;;;;;5072736;28;20173;-58
2023/05/28 04:48:04;;;;;;;0.00;0.00;;;14.80;95.90;;;;;;5072084;28;20698;-62
2023/05/28 04:50:30;;;;;;;0.00;0.00;;;15.00;95.60;;;;;;5072762;28;20219;-61
2023/05/28 04:52:55;;;;;;;0.00;0.00;;;15.20;95.30;;;;;;5072817;28;20204;-60
2023/05/28 04:55:22;;;;;;;0.00;0.00;;;15.40;94.90;;;;;;5072881;28;20260;-60
2023/05/28 04:57:47;;;;;;;0.00;0.00;;;15.60;94.20;;;;;;5072629;28;20177;-60
2023/05/28 05:00:13;;;;;;;0.00;0.00;;;15.70;94.00;;;;;;5073534;28;20272;-60
2023/05/28 05:02:42;;;;;;;0.00;0.00;;;15.90;93.70;;;;;;5072785;28;20577;-60
2023/05/28 05:05:08;;;;;;;0.00;0.00;;;16.10;93.10;;;;;;5073214;28;20717;-60
2023/05/28 05:07:37;;;;;;;0.00;0.00;;;16.30;92.80;;;;;;5072014;28;20216;-60
2023/05/28 05:10:08;;;;;;;0.00;0.00;;;16.50;92.20;;;;;;5072726;28;20199;-61
2023/05/28 05:12:34;;;;;;;0.00;0.00;;;16.70;91.80;;;;;;5073198;28;20176;-61
2023/05/28 05:14:59;;;;;;;0.00;0.00;;;16.90;91.60;;;;;;5072312;28;20275;-61
2023/05/28 05:17:25;;;;;;;0.00;0.00;;;17.30;91.00;;;;;;5072493;28;20264;-61
2023/05/28 05:19:50;;;;;;;0.00;0.00;;;17.60;90.60;;;;;;5072093;28;20184;-59
2023/05/28 05:22:16;;;;;;;0.00;0.00;;;17.70;89.10;;;;;;5073030;28;20184;-61
2023/05/28 05:24:41;;;;;;;0.00;0.00;;;17.80;89.50;;;;;;5071693;28;20220;-61
2023/05/28 05:27:07;;;;;;;0.00;0.00;;;18.10;87.50;;;;;;5072575;28;20173;-61
2023/05/28 05:29:32;;;;;;;0.00;0.00;;;18.30;87.00;;;;;;5070947;28;20185;-61
2023/05/28 05:31:58;;;;;;;0.00;0.00;;;18.40;85.00;;;;;;5072337;28;20668;-61
2023/05/28 05:34:23;;;;;;;0.00;0.00;;;18.60;84.70;;;;;;5073053;28;20181;-61
2023/05/28 05:36:49;;;;;;;0.00;0.00;;;18.90;83.40;;;;;;5072272;28;20648;-61
2023/05/28 05:39:14;;;;;;;0.00;0.00;;;19.10;82.70;;;;;;5072840;28;20203;-61
2023/05/28 05:41:40;;;;;;;0.00;0.00;;;19.40;81.70;;;;;;5071227;28;20639;-62
2023/05/28 05:44:06;;;;;;;0.00;0.00;;;19.70;80.90;;;;;;5070907;28;20227;-61
2023/05/28 05:46:31;;;;;;;0.00;0.00;;;19.90;80.30;;;;;;5071914;28;20188;-60
2023/05/28 05:48:57;;;;;;;0.00;0.00;;;20.30;79.60;;;;;;5070072;28;20254;-60
2023/05/28 05:51:22;;;;;;;0.00;0.00;;;20.70;77.50;;;;;;5072231;28;20640;-60
2023/05/28 05:53:48;;;;;;;0.00;0.00;;;21.00;75.80;;;;;;5071437;28;20180;-60
2023/05/28 05:56:13;;;;;;;0.00;0.00;;;21.30;75.50;;;;;;5072058;28;20275;-60
2023/05/28 05:58:39;;;;;;;0.00;0.00;;;21.60;74.20;;;;;;5071748;28;20176;-60
2023/05/28 06:01:05;;;;;;;0.00;0.00;;;22.00;73.10;;;;;;5072253;28;20230;-60
2023/05/28 06:03:30;;;;;;;0.20;0.20;;;22.20;70.50;;;;;;5072378;28;20212;-60
2023/05/28 06:05:56;;;;;;;0.00;0.00;;;22.30;69.90;;;;;;5072435;28;20157;-60
2023/05/28 06:08:21;;;;;;;0.00;0.00;;;22.70;70.10;;;;;;5072148;28;20701;-60
2023/05/28 06:10:51;;;;;;;0.15;0.15;;;22.90;68.00;;;;;;5072499;28;20223;-60
2023/05/28 06:13:17;;;;;;;0.00;0.00;;;23.30;67.40;;;;;;5072452;28;20183;-60
2023/05/28 06:15:43;;;;;;;0.00;0.00;;;23.80;66.30;;;;;;5072274;28;20200;-60
2023/05/28 06:18:08;;;;;;;0.00;0.00;;;24.10;63.40;;;;;;5072190;28;20180;-60
2023/05/28 06:20:34;;;;;;;0.00;0.00;;;24.20;62.20;;;;;;5072166;28;20181;-60
2023/05/28 06:23:00;;;;;;;0.00;0.00;;;24.40;61.80;;;;;;5072519;28;20196;-60
2023/05/28 06:25:26;;;;;;;0.00;0.00;;;24.80;61.50;;;;;;5071989;28;20242;-60
2023/05/28 06:27:52;;;;;;;0.00;0.00;;;24.90;59.80;;;;;;5071859;28;20229;-60
2023/05/28 06:30:18;;;;;;;0.00;0.00;;;25.20;59.00;;;;;;5071979;28;20172;-60
2023/05/28 06:32:43;;;;;;;0.00;0.00;;;25.30;58.20;;;;;;5072007;28;20258;-61
2023/05/28 06:35:09;;;;;;;0.00;0.00;;;25.50;58.50;;;;;;5071734;28;20169;-60
2023/05/28 06:37:35;;;;;;;0.00;0.00;;;25.90;57.80;;;;;;5072017;28;20164;-60
2023/05/28 06:40:00;;;;;;;0.00;0.00;;;26.30;56.70;;;;;;5072107;28;20180;-60
2023/05/28 06:42:26;;;;;;;0.00;0.00;;;26.50;56.40;;;;;;5072244;28;20165;-61
2023/05/28 06:44:51;;;;;;;0.00;0.00;;;26.80;55.60;;;;;;5071972;28;20246;-60
2023/05/28 06:47:17;;;;;;;0.00;0.00;;;27.00;55.40;;;;;;5072241;28;20172;-60
2023/05/28 06:49:42;;;;;;;0.00;0.00;;;27.40;54.90;;;;;;5071992;28;20177;-61
2023/05/28 06:52:08;;;;;;;0.00;0.00;;;27.60;54.00;;;;;;5071850;28;20197;-60
2023/05/28 06:54:33;;;;;;;0.00;0.00;;;27.80;53.70;;;;;;5071835;28;20188;-60
2023/05/28 06:56:59;;;;;;;0.03;0.03;;;28.00;52.70;;;;;;5071590;28;20177;-60
2023/05/28 06:59:25;;;;;;;0.00;0.00;;;28.10;52.10;;;;;;5071791;28;20173;-60
2023/05/28 07:01:50;;;;;;;0.08;0.08;;;28.20;50.80;;;;;;5071606;28;20173;-60
2023/05/28 07:04:16;;;;;;;0.25;0.25;;;28.20;50.90;;;;;;5069938;28;20181;-60
2023/05/28 07:06:42;;;;;;;0.00;0.00;;;28.20;51.70;;;;;;5071300;28;20192;-61
2023/05/28 07:09:08;;;;;;;0.00;0.00;;;28.30;50.50;;;;;;5060293;28;20635;-60
2023/05/28 07:11:33;;;;;;;0.00;0.00;;;28.10;50.60;;;;;;5051637;28;20255;-60
2023/05/28 07:13:59;;;;;;;0.00;0.00;;;28.30;50.90;;;;;;5051398;28;20162;-60
2023/05/28 07:16:25;;;;;;;0.00;0.00;;;28.50;50.70;;;;;;5051412;28;20182;-60
2023/05/28 07:18:50;;;;;;;0.00;0.00;;;28.80;50.50;;;;;;5051398;28;20192;-61
2023/05/28 07:21:16;;;;;;;0.00;0.00;;;29.00;50.50;;;;;;5051645;28;20234;-60
2023/05/28 07:23:42;;;;;;;0.00;0.00;;;29.20;48.70;;;;;;5051425;28;20174;-61
2023/05/28 07:26:07;;;;;;;0.00;0.00;;;29.00;48.60;;;;;;5051181;28;20225;-60
2023/05/28 07:28:33;;;;;;;0.00;0.00;;;29.20;49.30;;;;;;5054706;28;20209;-61
2023/05/28 07:30:58;;;;;;;0.00;0.00;;;29.40;48.90;;;;;;5071291;28;20218;-60
2023/05/28 07:33:24;;;;;;;0.00;0.00;;;29.60;48.50;;;;;;5071506;28;20177;-60
2023/05/28 07:35:50;;;;;;;0.00;0.00;;;29.60;47.50;;;;;;5071146;28;20691;-60
2023/05/28 07:38:15;;;;;;;0.00;0.00;;;29.20;47.30;;;;;;5071391;28;20204;-60
2023/05/28 07:40:41;;;;;;;0.00;0.00;;;28.80;47.90;;;;;;5071311;28;20201;-60
2023/05/28 07:43:07;;;;;;;0.00;0.00;;;28.60;48.50;;;;;;5071353;28;20241;-60
2023/05/28 07:45:33;;;;;;;0.00;0.00;;;28.80;48.10;;;;;;5071151;28;20181;-60
2023/05/28 07:47:58;;;;;;;0.00;0.00;;;28.70;47.20;;;;;;5071060;28;20220;-60
2023/05/28 07:50:24;;;;;;;0.00;0.00;;;28.50;48.20;;;;;;5070871;28;20173;-60
2023/05/28 07:52:50;;;;;;;0.00;0.00;;;28.60;49.70;;;;;;5070948;28;20188;-60
2023/05/28 07:55:16;;;;;;;0.00;0.00;;;28.90;48.70;;;;;;5071274;28;20273;-61
2023/05/28 07:57:41;;;;;;;0.00;0.00;;;29.00;48.30;;;;;;5071165;28;20259;-61
2023/05/28 08:00:13;;;;;;;0.00;0.00;;;29.00;47.90;;;;;;5071156;28;20177;-60
2023/05/28 08:02:40;;;;;;;0.10;0.10;;;28.90;47.90;;;;;;5071027;28;20636;-60
2023/05/28 08:05:05;;;;;;;0.00;0.00;;;28.80;48.60;;;;;;5070912;28;20193;-60
2023/05/28 08:07:32;;;;;;;0.00;0.00;;;29.00;48.10;;;;;;5070854;28;20262;-60
2023/05/28 08:09:57;;;;;;;0.00;0.00;;;29.20;49.20;;;;;;5070833;28;20624;-61
2023/05/28 08:12:23;;;;;;;0.00;0.00;;;29.30;48.10;;;;;;5071073;28;20172;-60
2023/05/28 08:14:50;;;;;;;0.00;0.00;;;29.30;47.80;;;;;;5070719;28;20559;-60
2023/05/28 08:17:16;;;;;;;0.00;0.00;;;29.10;47.60;;;;;;5070934;28;20165;-60
2023/05/28 08:19:41;;;;;;;0.00;0.00;;;29.20;48.90;;;;;;5071016;28;20173;-61
2023/05/28 08:22:07;;;;;;;0.00;0.00;;;29.30;48.90;;;;;;5070988;28;20184;-60
2023/05/28 08:24:32;;;;;;;0.20;0.20;;;29.50;47.80;;;;;;5070842;28;20238;-60
2023/05/28 08:26:58;;;;;;;0.00;0.00;;;29.60;49.00;;;;;;5070806;28;20252;-60
2023/05/28 08:29:23;;;;;;;0.00;0.00;;;29.80;48.50;;;;;;5070823;28;20212;-60
2023/05/28 08:31:49;;;;;;;0.00;0.00;;;29.90;46.80;;;;;;5070454;28;20177;-60
2023/05/28 08:34:15;;;;;;;0.00;0.00;;;29.90;47.80;;;;;;5070888;28;20678;-60
2023/05/28 08:36:40;;;;;;;0.00;0.00;;;30.00;47.90;;;;;;5070805;28;20648;-61
2023/05/28 08:39:08;;;;;;;0.00;0.00;;;29.80;47.60;;;;;;5070670;28;20173;-61
2023/05/28 08:41:34;;;;;;;0.00;0.00;;;29.70;47.70;;;;;;5070844;28;20177;-60
2023/05/28 08:43:59;;;;;;;0.00;0.00;;;29.80;48.00;;;;;;5070644;28;20169;-60
2023/05/28 08:46:26;;;;;;;0.00;0.00;;;29.80;47.90;;;;;;5070759;28;20172;-60
2023/05/28 08:48:52;;;;;;;0.00;0.00;;;29.90;47.40;;;;;;5070443;28;20240;-60
2023/05/28 08:51:21;;;;;;;0.20;0.20;;;29.80;47.60;;;;;;5070730;28;20271;-60
2023/05/28 08:53:47;;;;;;;0.00;0.00;;;29.60;48.00;;;;;;5070534;28;20181;-60
2023/05/28 08:56:13;;;;;;;0.00;0.00;;;29.50;47.80;;;;;;5070474;28;20176;-59
2023/05/28 08:58:39;;;;;;;0.00;0.00;;;29.40;47.00;;;;;;5070660;28;20165;-59
2023/05/28 09:01:08;;;;;;;0.00;0.00;;;29.10;47.60;;;;;;5070471;28;20183;-59
2023/05/28 09:03:35;;;;;;;0.00;0.00;;;29.00;48.50;;;;;;5071903;28;20222;-59
2023/05/28 09:06:01;;;;;;;0.00;0.00;;;28.90;48.50;;;;;;5073923;28;20201;-60
2023/05/28 09:08:27;;;;;;;0.10;0.10;;;29.00;48.70;;;;;;5073946;28;20216;-59
2023/05/28 09:11:08;;;;;;;0.00;0.00;;;28.90;48.30;;;;;;5073744;28;20498;-59
2023/05/28 09:13:33;;;;;;;0.00;0.00;;;28.80;49.00;;;;;;5073978;28;20635;-59
2023/05/28 09:15:59;;;;;;;0.00;0.00;;;28.80;50.20;;;;;;5073794;28;20222;-59
2023/05/28 09:18:25;;;;;;;0.00;0.00;;;28.90;49.40;;;;;;5073973;28;20185;-59
2023/05/28 09:20:51;;;;;;;0.00;0.00;;;28.90;49.40;;;;;;5073606;28;20206;-59
2023/05/28 09:23:18;;;;;;;0.00;0.00;;;29.00;50.20;;;;;;5073893;28;20181;-59
2023/05/28 09:25:46;;;;;;;0.00;0.00;;;29.20;49.20;;;;;;5073329;28;20244;-59
2023/05/28 09:28:15;;;;;;;0.00;0.00;;;29.40;48.40;;;;;;5073444;28;20212;-59
2023/05/28 09:30:41;;;;;;;0.00;0.00;;;29.50;47.90;;;;;;5073667;28;20173;-59
2023/05/28 09:33:08;;;;;;;0.00;0.00;;;29.70;47.50;;;;;;5073523;28;20200;-59
2023/05/28 09:35:35;;;;;;;0.10;0.10;;;29.80;48.00;;;;;;5073414;28;20211;-59
2023/05/28 09:38:02;;;;;;;0.00;0.00;;;29.80;48.40;;;;;;5073415;28;20175;-59
2023/05/28 09:40:27;;;;;;;0.17;0.17;;;29.80;48.50;;;;;;5073341;28;20165;-59
2023/05/28 09:42:53;;;;;;;0.00;0.00;;;29.70;47.10;;;;;;5073233;28;20185;-59
2023/05/28 09:45:25;;;;;;;0.00;0.00;;;29.70;47.30;;;;;;5073435;28;20599;-59
2023/05/28 09:47:51;;;;;;;0.00;0.00;;;29.70;47.90;;;;;;5072766;28;20216;-59
2023/05/28 09:50:17;;;;;;;0.00;0.00;;;29.70;47.70;;;;;;5073010;28;20237;-59
2023/05/28 09:52:44;;;;;;;0.00;0.00;;;29.80;47.50;;;;;;5073035;28;20176;-60
2023/05/28 09:55:17;;;;;;;0.00;0.00;;;29.90;47.50;;;;;;5072927;28;20701;-59
2023/05/28 09:57:51;;;;;;;0.00;0.00;;;29.90;46.80;;;;;;5073047;28;20205;-59
2023/05/28 10:00:23;;;;;;;0.15;0.15;;;29.60;47.00;;;;;;5073023;28;20584;-59
2023/05/28 10:02:58;;;;;;;0.00;0.00;;;29.40;47.40;;;;;;5072819;28;20170;-59
2023/05/28 10:05:27;;;;;;;0.00;0.00;;;29.40;47.00;;;;;;5072658;28;20639;-59
2023/05/28 10:07:55;;;;;;;0.00;0.00;;;29.10;46.20;;;;;;5072583;28;20234;-59
2023/05/28 10:10:21;;;;;;;0.00;0.00;;;29.20;47.70;;;;;;5072910;28;20179;-59
2023/05/28 10:12:49;;;;;;;0.00;0.00;;;29.30;47.80;;;;;;5072761;28;20161;-59
2023/05/28 10:15:16;;;;;;;0.00;0.00;;;29.40;47.50;;;;;;5072421;28;20188;-59
2023/05/28 10:17:43;;;;;;;0.10;0.10;;;29.10;47.60;;;;;;5072408;28;20168;-60
2023/05/28 10:20:10;;;;;;;0.00;0.00;;;29.10;47.40;;;;;;5072503;28;20185;-59
2023/05/28 10:22:38;;;;;;;0.00;0.00;;;29.00;47.20;;;;;;5072284;28;20252;-59
2023/05/28 10:25:07;;;;;;;0.68;0.68;;;29.00;46.00;;;;;;5072155;28;20219;-59
2023/05/28 10:27:35;;;;;;;0.00;0.00;;;29.30;46.20;;;;;;5072411;28;20177;-59
2023/05/28 10:30:05;;;;;;;0.00;0.00;;;29.50;44.90;;;;;;5072290;28;20188;-59
2023/05/28 10:32:41;;;;;;;0.00;0.00;;;29.40;44.80;;;;;;5072250;28;20180;-59
2023/05/28 10:35:09;;;;;;;0.00;0.00;;;29.30;44.40;;;;;;5072161;28;20534;-60
2023/05/28 10:37:35;;;;;;;0.47;0.20;;;29.20;43.80;;;;;;5072161;28;20184;-59
2023/05/28 10:40:01;;;;;;;0.00;0.00;;;29.10;44.30;;;;;;5072126;28;20185;-60
2023/05/28 10:42:27;;;;;;;0.60;0.60;;;28.80;43.50;;;;;;5072206;28;20260;-60
2023/05/28 10:45:10;;;;;;;0.38;0.30;;;28.70;43.70;;;;;;5071968;28;20271;-59
2023/05/28 10:47:40;;;;;;;0.00;0.00;;;28.70;44.40;;;;;;5071995;28;20695;-60
2023/05/28 10:50:08;;;;;;;0.00;0.00;;;28.50;44.10;;;;;;5072125;28;20223;-60
2023/05/28 10:52:35;;;;;;;0.00;0.00;;;28.50;44.70;;;;;;5071978;28;20624;-60
2023/05/28 10:55:06;;;;;;;0.00;0.00;;;28.40;44.70;;;;;;5071987;28;20227;-60
2023/05/28 10:57:44;;;;;;;0.00;0.00;;;28.50;46.50;;;;;;5071874;28;20246;-60
2023/05/28 11:00:14;;;;;;;0.00;0.00;;;28.60;45.40;;;;;;5071892;28;20176;-60
2023/05/28 11:02:42;;;;;;;0.00;0.00;;;28.80;45.30;;;;;;5071886;28;20188;-61
2023/05/28 11:05:08;;;;;;;0.00;0.00;;;29.00;44.60;;;;;;5064270;28;20713;-60
2023/05/28 11:07:39;;;;;;;0.00;0.00;;;29.00;43.90;;;;;;5051729;28;20704;-60
2023/05/28 11:10:07;;;;;;;0.00;0.00;;;28.60;43.80;;;;;;5051681;28;20191;-60
2023/05/28 11:12:39;;;;;;;0.00;0.00;;;28.40;43.90;;;;;;5051638;28;20184;-60
2023/05/28 11:15:06;;;;;;;0.00;0.00;;;28.50;45.00;;;;;;5051493;28;20182;-61
2023/05/28 11:17:43;;;;;;;0.25;0.25;;;28.60;45.30;;;;;;5051497;28;20212;-60
2023/05/28 11:20:16;;;;;;;0.00;0.00;;;28.90;45.80;;;;;;5051323;28;20227;-60
2023/05/28 11:22:41;;;;;;;0.00;0.00;;;29.20;44.50;;;;;;5051323;28;20173;-61
2023/05/28 11:25:09;;;;;;;0.00;0.00;;;29.40;44.00;;;;;;5050928;28;20283;-60
2023/05/28 11:27:36;;;;;;;0.00;0.00;;;29.50;44.40;;;;;;5050876;28;20197;-60
2023/05/28 11:30:14;;;;;;;0.00;0.00;;;29.30;43.80;;;;;;5065714;28;20267;-61
2023/05/28 11:32:41;;;;;;;0.00;0.00;;;29.20;44.30;;;;;;5071422;28;20539;-60
2023/05/28 11:35:10;;;;;;;0.00;0.00;;;29.20;43.70;;;;;;5071339;28;20185;-61
2023/05/28 11:37:36;;;;;;;0.00;0.00;;;29.20;43.80;;;;;;5071311;28;20713;-60
2023/05/28 11:40:13;;;;;;;0.00;0.00;;;29.60;44.40;;;;;;5071311;28;20197;-60
2023/05/28 11:42:42;;;;;;;0.00;0.00;;;29.70;43.80;;;;;;5071448;28;20226;-60
2023/05/28 11:45:09;;;;;;;0.00;0.00;;;29.60;44.00;;;;;;5071065;28;20188;-60
2023/05/28 11:47:36;;;;;;;0.00;0.00;;;29.60;43.90;;;;;;5071258;28;20544;-60
2023/05/28 11:50:13;;;;;;;0.00;0.00;;;29.50;43.90;;;;;;5071163;28;20242;-60
2023/05/28 11:52:39;;;;;;;0.00;0.00;;;29.30;43.30;;;;;;5071257;28;20199;-61
2023/05/28 11:55:05;;;;;;;0.00;0.00;;;29.10;43.70;;;;;;5069979;28;20730;-60
2023/05/28 11:57:33;;;;;;;0.10;0.10;;;29.10;44.80;;;;;;5071084;28;20242;-60
2023/05/28 12:00:15;;;;;;;0.00;0.00;;;29.00;45.50;;;;;;5071104;28;20184;-60
2023/05/28 12:02:53;;;;;;;0.00;0.00;;;29.10;44.00;;;;;;5071103;28;20180;-60
2023/05/28 12:05:19;;;;;;;0.05;0.05;;;29.10;43.80;;;;;;5071089;28;20243;-61
2023/05/28 12:07:53;;;;;;;0.00;0.00;;;29.40;44.30;;;;;;5070892;28;20212;-61
2023/05/28 12:10:26;;;;;;;0.00;0.00;;;29.40;43.90;;;;;;5071181;28;20168;-60
2023/05/28 12:12:55;;;;;;;0.00;0.00;;;29.30;43.80;;;;;;5070778;28;20188;-60
2023/05/28 12:15:22;;;;;;;0.00;0.00;;;29.30;44.20;;;;;;5071099;28;20255;-60
2023/05/28 12:17:56;;;;;;;0.00;0.00;;;29.20;42.60;;;;;;5070814;28;20165;-61
2023/05/28 12:20:22;;;;;;;0.00;0.00;;;29.10;42.40;;;;;;5071056;28;20260;-60
2023/05/28 12:23:03;;;;;;;0.00;0.00;;;28.80;42.80;;;;;;5070774;28;20256;-60
2023/05/28 12:25:34;;;;;;;0.00;0.00;;;28.70;43.40;;;;;;5070737;28;20228;-60
2023/05/28 12:27:59;;;;;;;0.00;0.00;;;28.60;41.80;;;;;;5070684;28;20633;-60
2023/05/28 12:30:25;;;;;;;0.00;0.00;;;28.40;42.50;;;;;;5070860;28;20169;-60
2023/05/28 12:32:50;;;;;;;0.00;0.00;;;28.40;42.30;;;;;;5070661;28;20165;-60
2023/05/28 12:35:16;;;;;;;0.00;0.00;;;28.30;43.00;;;;;;5070795;28;20168;-60
2023/05/28 12:37:41;;;;;;;0.00;0.00;;;28.20;43.90;;;;;;5072535;28;20217;-60
2023/05/28 12:40:07;;;;;;;0.00;0.00;;;28.20;44.50;;;;;;5074715;28;20171;-60
2023/05/28 12:42:33;;;;;;;0.00;0.00;;;28.40;44.40;;;;;;5074358;28;20176;-60
2023/05/28 12:44:58;;;;;;;0.00;0.00;;;28.40;43.30;;;;;;5074443;28;20169;-60